Terminal Aerodrome Forecast
Issued by NWS

Home | Current Version | Previous Version | Text Only | Print | Product List | Glossary On
Versions: 1 2 3 4 5 6 7 8 9 10 11 12 13 14 15 16
251
FTUS46 KSGX 291135
TAFCRQ
TAF
KCRQ 291135Z 2912/3012 VRB05KT 6SM HZ OVC010
     FM292000 VRB06KT 6SM HZ BKN020
     FM292300 26010KT P6SM SCT022 SCT250
     FM300200 VRB05KT P6SM OVC020
     FM300800 VRB05KT 5SM BR BKN010=

USA.gov is the U.S. government's official web portal to all federal, state and local government web resources and services.